Time;durP1;ratioP1;P1;durP2;ratioP2;P2;SDS_P1;SDS_P2;PMS_P1;PMS_P2;Temp;Humidity;BMP_temperature;BMP_pressure;BME280_temperature;BME280_humidity;BME280_pressure;Samples;Min_cycle;Max_cycle;Signal;HPM_P1;HPM_P2
2022/08/18 00:01:18;;;;;;;;;47.00;41.00;;;;;19.66;64.38;99518.03;5098515;28;8822;-62
2022/08/18 00:03:46;;;;;;;;;39.00;37.25;;;;;19.63;64.00;99521.97;5099501;28;8838;-64
2022/08/18 00:06:26;;;;;;;;;50.25;43.00;;;;;19.60;64.17;99522.34;5098561;28;8830;-63
2022/08/18 00:08:56;;;;;;;;;49.50;41.25;;;;;19.63;64.89;99526.50;5098710;28;8834;-63
2022/08/18 00:11:23;;;;;;;;;61.25;44.75;;;;;19.64;64.41;99523.63;5098452;28;8849;-63
2022/08/18 00:13:51;;;;;;;;;50.50;42.25;;;;;19.66;64.41;99528.84;5098829;28;8850;-63
2022/08/18 00:16:19;;;;;;;;;49.50;43.50;;;;;19.68;64.58;99535.75;5098779;28;8826;-63
2022/08/18 00:18:47;;;;;;;;;40.50;37.25;;;;;19.69;64.23;99526.63;5098941;28;8818;-63
2022/08/18 00:21:14;;;;;;;;;47.50;38.00;;;;;19.70;64.21;99531.00;5098228;28;9361;-63
2022/08/18 00:23:42;;;;;;;;;53.50;44.00;;;;;19.70;64.77;99528.28;5096402;28;8841;-63
2022/08/18 00:26:10;;;;;;;;;49.50;44.25;;;;;19.69;64.68;99518.50;5098414;28;9056;-63
2022/08/18 00:28:38;;;;;;;;;54.00;43.50;;;;;19.64;64.86;99512.81;5098400;28;8857;-63
2022/08/18 00:31:05;;;;;;;;;56.25;43.00;;;;;19.56;65.13;99512.94;5097646;28;8850;-63
2022/08/18 00:33:33;;;;;;;;;48.25;37.25;;;;;19.48;64.92;99507.66;5094675;28;8890;-62
2022/08/18 00:36:01;;;;;;;;;39.25;33.50;;;;;19.42;64.94;99508.41;5094815;28;8846;-63
2022/08/18 00:38:29;;;;;;;;;49.25;43.75;;;;;19.39;65.08;99514.19;5094965;28;8846;-63
2022/08/18 00:40:57;;;;;;;;;54.50;45.75;;;;;19.38;65.20;99515.22;5098021;28;8834;-63
2022/08/18 00:43:27;;;;;;;;;55.50;47.50;;;;;19.37;65.33;99515.41;5097790;28;8856;-62
2022/08/18 00:45:55;;;;;;;;;39.50;34.75;;;;;19.38;64.96;99517.06;5098459;28;8840;-62
2022/08/18 00:48:24;;;;;;;;;52.75;43.00;;;;;19.36;65.26;99517.25;5098121;28;8984;-63
2022/08/18 00:50:52;;;;;;;;;52.25;42.75;;;;;19.34;64.92;99515.78;5097431;28;9507;-64
2022/08/18 00:53:19;;;;;;;;;38.25;33.75;;;;;19.32;64.96;99517.81;5097669;28;8957;-63
2022/08/18 00:55:47;;;;;;;;;45.50;41.50;;;;;19.32;65.26;99509.72;5098021;28;8952;-63
2022/08/18 00:58:21;;;;;;;;;51.00;41.50;;;;;19.31;65.04;99516.13;5095701;28;8826;-62
2022/08/18 01:00:49;;;;;;;;;41.25;37.00;;;;;19.28;65.74;99508.44;5096310;28;8826;-63
2022/08/18 01:03:17;;;;;;;;;43.75;37.00;;;;;19.24;65.33;99510.66;5097231;28;8849;-62
2022/08/18 01:05:51;;;;;;;;;37.75;36.25;;;;;19.20;65.44;99513.94;5097434;28;8845;-63
2022/08/18 01:08:19;;;;;;;;;36.00;35.25;;;;;19.16;65.17;99508.03;5095343;28;8822;-63
2022/08/18 01:10:56;;;;;;;;;43.00;39.25;;;;;19.10;65.27;99511.47;5094151;28;8862;-63
2022/08/18 01:13:23;;;;;;;;;47.50;43.00;;;;;19.06;65.60;99499.34;5096565;28;8834;-63
2022/08/18 01:15:51;;;;;;;;;57.00;43.25;;;;;19.02;65.73;99503.47;5097226;28;8883;-63
2022/08/18 01:23:49;;;;;;;;;40.25;36.25;;;;;18.91;66.09;99503.91;5097123;28;8834;-63
2022/08/18 01:26:16;;;;;;;;;43.75;41.00;;;;;18.83;66.14;99500.47;5097949;28;8968;-62
2022/08/18 01:28:43;;;;;;;;;40.50;38.25;;;;;18.74;66.15;99502.41;5096690;28;8826;-63
2022/08/18 01:31:12;;;;;;;;;39.00;31.25;;;;;18.67;66.61;99506.88;5097069;28;8842;-63
2022/08/18 01:33:40;;;;;;;;;46.25;37.75;;;;;18.59;67.11;99514.22;5096968;28;8911;-62
2022/08/18 01:36:11;;;;;;;;;45.50;40.25;;;;;18.54;66.45;99512.06;5096684;28;8960;-62
2022/08/18 01:38:39;;;;;;;;;50.00;42.75;;;;;18.52;66.72;99508.72;5097175;28;8822;-62
2022/08/18 01:41:07;;;;;;;;;48.25;44.50;;;;;18.49;66.88;99506.38;5096660;28;9536;-63
2022/08/18 01:43:55;;;;;;;;;54.25;42.00;;;;;18.48;66.96;99522.75;5096035;28;9003;-62
2022/08/18 01:46:23;;;;;;;;;48.25;43.50;;;;;18.45;67.27;99525.81;5096704;28;8907;-63
2022/08/18 01:48:51;;;;;;;;;39.50;38.25;;;;;18.42;66.77;99524.31;5096626;28;8818;-63
2022/08/18 01:51:20;;;;;;;;;42.00;37.50;;;;;18.45;66.84;99523.94;5095916;28;8910;-63
2022/08/18 01:54:06;;;;;;;;;50.25;41.00;;;;;18.44;66.86;99519.56;5096841;28;8857;-63
2022/08/18 01:56:35;;;;;;;;;40.25;36.50;;;;;18.42;66.75;99523.47;5096681;28;8828;-63
2022/08/18 01:59:03;;;;;;;;;37.25;32.00;;;;;18.41;66.41;99524.47;5096537;28;8968;-62
2022/08/18 02:01:30;;;;;;;;;50.75;42.75;;;;;18.41;66.86;99527.19;5096539;28;8818;-62
2022/08/18 02:04:03;;;;;;;;;27.25;25.50;;;;;18.40;66.84;99534.44;5095505;28;8830;-62
2022/08/18 02:06:51;;;;;;;;;40.00;32.75;;;;;18.39;66.90;99524.69;5095226;28;8822;-62
2022/08/18 02:09:19;;;;;;;;;36.25;33.25;;;;;18.35;67.17;99527.91;5094823;28;8911;-62
2022/08/18 02:11:51;;;;;;;;;34.25;30.00;;;;;18.31;67.01;99513.13;5094824;28;8918;-62
2022/08/18 02:14:22;;;;;;;;;53.50;42.50;;;;;18.29;66.85;99515.13;5095718;28;8837;-63
2022/08/18 02:16:53;;;;;;;;;57.25;45.25;;;;;18.31;67.12;99505.88;5096570;28;8861;-62
2022/08/18 02:19:27;;;;;;;;;48.00;45.00;;;;;18.37;67.25;99509.72;5096458;28;8838;-63
2022/08/18 02:21:55;;;;;;;;;48.75;41.75;;;;;18.42;67.19;99508.13;5096264;28;8915;-62
2022/08/18 02:24:23;;;;;;;;;43.75;38.00;;;;;18.47;66.68;99503.03;5096380;28;8853;-62
2022/08/18 02:26:51;;;;;;;;;42.50;40.75;;;;;18.54;66.57;99505.84;5096027;28;9718;-63
2022/08/18 02:29:19;;;;;;;;;48.00;45.25;;;;;18.58;66.17;99501.75;5095813;28;8910;-62
2022/08/18 02:31:46;;;;;;;;;47.50;40.25;;;;;18.60;66.36;99510.50;5096060;28;8902;-62
2022/08/18 02:34:14;;;;;;;;;49.00;40.50;;;;;18.62;66.33;99509.31;5096145;28;8846;-62
2022/08/18 02:36:42;;;;;;;;;45.25;40.00;;;;;18.60;67.06;99511.31;5096315;28;8953;-63
2022/08/18 02:39:10;;;;;;;;;38.75;31.50;;;;;18.56;66.80;99507.34;5095777;28;8846;-62
2022/08/18 02:41:37;;;;;;;;;46.00;42.00;;;;;18.52;67.04;99511.41;5095362;28;8856;-62
2022/08/18 02:44:05;;;;;;;;;43.00;40.00;;;;;18.46;67.00;99509.47;5095439;28;8834;-62
2022/08/18 02:46:33;;;;;;;;;36.75;32.25;;;;;18.41;67.01;99509.16;5095418;28;8822;-62
2022/08/18 02:49:01;;;;;;;;;45.00;37.75;;;;;18.36;67.16;99511.56;5095476;28;8834;-62
2022/08/18 02:51:28;;;;;;;;;32.75;28.50;;;;;18.32;67.47;99512.94;5095799;28;8984;-63
2022/08/18 02:53:57;;;;;;;;;44.25;39.75;;;;;18.27;67.37;99509.91;5095433;28;8922;-62
2022/08/18 02:56:26;;;;;;;;;34.50;31.00;;;;;18.23;67.58;99507.75;5095625;28;8826;-62
2022/08/18 02:59:08;;;;;;;;;45.75;39.25;;;;;18.19;67.45;99514.53;5095659;28;8953;-62
2022/08/18 03:01:37;;;;;;;;;43.25;37.75;;;;;18.16;67.42;99510.34;5095565;28;8966;-62
2022/08/18 03:04:05;;;;;;;;;43.75;39.50;;;;;18.15;67.74;99505.97;5095894;28;8849;-62
2022/08/18 03:06:33;;;;;;;;;41.25;34.75;;;;;18.15;67.13;99502.44;5096171;28;9475;-62
2022/08/18 03:09:01;;;;;;;;;49.25;40.25;;;;;18.11;67.90;99504.66;5095438;28;8830;-62
2022/08/18 03:11:28;;;;;;;;;43.50;39.00;;;;;18.08;67.72;99505.00;5095794;28;8933;-62
2022/08/18 03:13:56;;;;;;;;;38.00;35.25;;;;;18.06;67.38;99504.34;5095261;28;9624;-62
2022/08/18 03:16:24;;;;;;;;;45.50;41.00;;;;;18.03;67.77;99502.03;5099539;28;8840;-63
2022/08/18 03:18:52;;;;;;;;;31.75;22.00;;;;;18.00;67.85;99502.38;5099590;28;8950;-62
2022/08/18 03:21:20;;;;;;;;;42.75;38.25;;;;;17.96;67.87;99501.06;5098889;28;8830;-62
2022/08/18 03:23:48;;;;;;;;;51.25;41.25;;;;;17.90;68.07;99509.88;5097908;28;8964;-62
2022/08/18 03:26:29;;;;;;;;;44.75;38.50;;;;;17.82;68.50;99499.13;5099191;28;9585;-63
2022/08/18 03:28:57;;;;;;;;;40.00;37.25;;;;;17.74;68.51;99504.59;5099393;28;8844;-62
2022/08/18 03:31:24;;;;;;;;;39.50;34.00;;;;;17.68;68.45;99513.38;5099064;28;8826;-62
2022/08/18 03:33:54;;;;;;;;;37.25;33.75;;;;;17.64;68.54;99521.97;5099814;28;8842;-63
2022/08/18 03:36:26;;;;;;;;;34.00;30.75;;;;;17.58;68.69;99512.75;5099123;28;8863;-62
2022/08/18 03:38:54;;;;;;;;;41.00;36.75;;;;;17.55;68.49;99518.47;5099273;28;8964;-62
2022/08/18 03:41:22;;;;;;;;;44.50;33.25;;;;;17.54;68.33;99507.91;5099436;28;9507;-62
2022/08/18 03:44:10;;;;;;;;;40.00;37.50;;;;;17.52;68.71;99509.91;5098744;28;8928;-62
2022/08/18 03:46:38;;;;;;;;;51.25;42.00;;;;;17.51;68.25;99506.41;5099023;28;8976;-62
2022/08/18 03:49:06;;;;;;;;;45.75;37.25;;;;;17.52;68.42;99518.00;5098878;28;8843;-62
2022/08/18 03:51:33;;;;;;;;;34.50;30.75;;;;;17.52;68.72;99518.84;5098583;28;8865;-63
2022/08/18 03:54:01;;;;;;;;;42.75;36.75;;;;;17.55;67.83;99512.28;5098475;28;8838;-62
2022/08/18 03:56:32;;;;;;;;;42.75;41.25;;;;;17.55;68.66;99523.06;5098905;28;8972;-62
2022/08/18 03:59:00;;;;;;;;;35.00;34.25;;;;;17.53;68.21;99515.13;5098988;28;8830;-62
2022/08/18 04:01:27;;;;;;;;;45.50;40.25;;;;;17.54;68.71;99516.00;5098244;28;8838;-62
2022/08/18 04:03:55;;;;;;;;;28.00;27.00;;;;;17.54;68.80;99522.19;5098977;28;8822;-62
2022/08/18 04:06:23;;;;;;;;;41.00;35.75;;;;;17.49;68.17;99524.59;5098637;28;9594;-62
2022/08/18 04:08:57;;;;;;;;;34.50;31.00;;;;;17.46;68.92;99514.16;5098079;28;8849;-62
2022/08/18 04:11:24;;;;;;;;;33.75;32.25;;;;;17.46;68.16;99522.25;5099157;28;8830;-62
2022/08/18 04:13:52;;;;;;;;;42.75;36.25;;;;;17.46;68.61;99514.16;5098533;28;8848;-62
2022/08/18 04:16:20;;;;;;;;;38.25;34.25;;;;;17.51;68.14;99516.31;5098863;28;8944;-62
2022/08/18 04:18:48;;;;;;;;;42.00;36.50;;;;;17.55;68.48;99515.78;5097933;28;8868;-62
2022/08/18 04:21:16;;;;;;;;;36.25;30.25;;;;;17.60;68.08;99512.59;5099004;28;8861;-62
2022/08/18 04:23:43;;;;;;;;;46.00;39.75;;;;;17.66;67.91;99514.56;5097213;28;8952;-62
2022/08/18 04:26:11;;;;;;;;;48.50;39.50;;;;;17.71;67.77;99517.56;5098189;28;9484;-62
2022/08/18 04:28:45;;;;;;;;;39.00;34.75;;;;;17.76;67.22;99521.41;5098244;28;8914;-62
2022/08/18 04:31:13;;;;;;;;;47.25;39.50;;;;;17.83;67.29;99521.53;5098134;28;8954;-62
2022/08/18 04:33:41;;;;;;;;;33.50;30.50;;;;;17.92;67.04;99539.34;5097397;28;8978;-62
2022/08/18 04:36:09;;;;;;;;;46.25;41.00;;;;;18.01;66.74;99530.16;5098120;28;8956;-62
2022/08/18 04:38:37;;;;;;;;;45.50;40.75;;;;;18.09;67.03;99541.75;5098078;28;8846;-62
2022/08/18 04:41:05;;;;;;;;;48.75;44.00;;;;;18.19;66.63;99534.25;5097981;28;8825;-62
2022/08/18 04:43:33;;;;;;;;;47.75;42.75;;;;;18.29;66.72;99537.53;5098104;28;8838;-62
2022/08/18 04:46:02;;;;;;;;;59.50;48.75;;;;;18.38;66.32;99541.84;5097581;28;8830;-62
2022/08/18 04:48:32;;;;;;;;;40.75;36.75;;;;;18.47;66.12;99543.50;5096354;28;8854;-62
2022/08/18 04:51:00;;;;;;;;;50.00;45.00;;;;;18.56;66.36;99542.41;5096771;28;8952;-62
2022/08/18 04:53:44;;;;;;;;;51.75;43.25;;;;;18.63;66.29;99548.75;5097012;28;8875;-62
2022/08/18 04:56:12;;;;;;;;;48.50;42.00;;;;;18.71;65.64;99561.31;5096626;28;9499;-62
2022/08/18 04:58:41;;;;;;;;;50.75;41.25;;;;;18.73;65.93;99560.09;5097105;28;8837;-62
2022/08/18 05:01:09;;;;;;;;;29.75;27.25;;;;;18.74;66.48;99556.38;5096578;28;9040;-63
2022/08/18 05:03:37;;;;;;;;;42.00;37.25;;;;;18.76;66.11;99559.72;5095823;28;8834;-62
2022/08/18 05:06:16;;;;;;;;;46.50;41.00;;;;;18.80;66.50;99555.66;5096005;28;9637;-63
2022/08/18 05:08:45;;;;;;;;;50.75;43.00;;;;;18.85;66.23;99569.44;5095634;28;8856;-62
2022/08/18 05:11:13;;;;;;;;;43.00;39.75;;;;;18.92;65.73;99562.28;5094130;28;8952;-63
2022/08/18 05:13:41;;;;;;;;;48.50;39.25;;;;;18.98;66.13;99548.03;5094730;28;8960;-62
2022/08/18 05:16:09;;;;;;;;;40.75;35.50;;;;;19.05;65.98;99554.38;5095835;28;8849;-62
2022/08/18 05:18:52;;;;;;;;;45.50;37.75;;;;;19.13;65.42;99551.56;5093879;28;8977;-62
2022/08/18 05:21:20;;;;;;;;;49.50;42.00;;;;;19.20;65.35;99546.31;5094013;28;8980;-62
2022/08/18 05:23:50;;;;;;;;;45.25;40.50;;;;;19.26;65.20;99551.81;5094195;28;8858;-62
2022/08/18 05:26:19;;;;;;;;;40.25;36.50;;;;;19.32;65.61;99548.38;5094434;28;8846;-62
2022/08/18 05:28:46;;;;;;;;;36.25;32.25;;;;;19.41;64.93;99549.13;5094965;28;8834;-62
2022/08/18 05:31:14;;;;;;;;;48.00;41.50;;;;;19.45;64.87;99551.25;5095660;28;8826;-63
2022/08/18 05:33:42;;;;;;;;;48.00;42.25;;;;;19.49;65.33;99563.34;5095365;28;8864;-64
2022/08/18 05:36:09;;;;;;;;;51.50;44.00;;;;;19.52;65.05;99560.28;5095087;28;8846;-62
2022/08/18 05:38:38;;;;;;;;;43.75;37.50;;;;;19.56;65.22;99568.84;5094215;28;8930;-62
2022/08/18 05:41:05;;;;;;;;;49.75;43.75;;;;;19.61;65.07;99566.41;5094870;28;8868;-63
2022/08/18 05:43:33;;;;;;;;;42.75;38.00;;;;;19.66;64.68;99555.88;5092310;28;9646;-62
2022/08/18 05:46:01;;;;;;;;;56.00;44.25;;;;;19.70;65.19;99558.00;5091293;28;8840;-62
2022/08/18 05:48:29;;;;;;;;;33.00;29.00;;;;;19.76;64.82;99554.56;5092015;28;9511;-62
2022/08/18 05:50:56;;;;;;;;;54.25;45.00;;;;;19.80;64.86;99553.13;5090718;28;9665;-62
2022/08/18 05:56:45;;;;;;;;;45.00;40.75;;;;;19.79;64.76;99556.03;5092114;28;8854;-62
2022/08/18 05:59:06;;;;;;;;;51.25;43.00;;;;;19.79;65.26;99570.38;5052602;28;8908;-62
2022/08/18 06:01:33;;;;;;;;;49.75;40.75;;;;;19.76;65.67;99583.44;5091348;28;8846;-62
2022/08/18 06:04:01;;;;;;;;;46.75;38.00;;;;;19.75;65.36;99585.31;5091452;28;8972;-62
2022/08/18 06:06:29;;;;;;;;;29.00;23.00;;;;;19.74;65.62;99577.38;5090619;28;8838;-62
2022/08/18 06:08:57;;;;;;;;;49.75;42.50;;;;;19.73;65.43;99586.53;5090047;28;8976;-63
2022/08/18 06:11:25;;;;;;;;;51.75;44.00;;;;;19.73;65.89;99592.75;5091321;28;8960;-62
2022/08/18 06:13:53;;;;;;;;;52.75;42.50;;;;;19.73;66.35;99589.22;5091280;28;8850;-62
2022/08/18 06:16:26;;;;;;;;;49.50;41.25;;;;;19.72;65.80;99592.97;5091003;28;8865;-62
2022/08/18 06:18:54;;;;;;;;;57.25;44.00;;;;;19.73;65.99;99603.56;5089689;28;8830;-62
2022/08/18 06:21:22;;;;;;;;;56.25;43.50;;;;;19.74;66.33;99593.59;5091349;28;8841;-62
2022/08/18 06:23:50;;;;;;;;;57.75;48.00;;;;;19.80;66.31;99600.97;5091797;28;9593;-62
2022/08/18 06:26:18;;;;;;;;;42.00;36.25;;;;;19.82;65.91;99607.00;5092567;28;9517;-63
2022/08/18 06:28:46;;;;;;;;;55.75;44.25;;;;;19.85;66.28;99602.06;5092889;28;8976;-62
2022/08/18 06:31:14;;;;;;;;;47.00;37.75;;;;;19.88;65.79;99593.56;5094131;28;8811;-62
2022/08/18 06:33:42;;;;;;;;;55.25;44.50;;;;;19.92;65.82;99604.84;5093573;28;8841;-62
2022/08/18 06:36:13;;;;;;;;;47.75;41.25;;;;;19.94;65.86;99617.13;5094124;28;8838;-62
2022/08/18 06:38:45;;;;;;;;;51.00;39.25;;;;;19.95;66.25;99616.09;5092864;28;8842;-63
2022/08/18 06:41:13;;;;;;;;;47.00;39.75;;;;;19.96;65.92;99608.84;5093254;28;9578;-62
2022/08/18 06:44:02;;;;;;;;;39.50;34.25;;;;;19.95;66.10;99613.41;5090737;28;8830;-63
2022/08/18 06:46:32;;;;;;;;;47.00;37.50;;;;;19.94;66.03;99617.13;5091976;28;9000;-63
2022/08/18 06:49:00;;;;;;;;;44.50;34.00;;;;;19.93;65.98;99620.88;5091399;28;8884;-62
2022/08/18 06:51:28;;;;;;;;;38.75;35.25;;;;;19.93;66.48;99626.28;5092646;28;8857;-63
2022/08/18 06:53:56;;;;;;;;;46.25;40.00;;;;;19.93;66.57;99623.56;5090479;28;8829;-63
2022/08/18 06:56:23;;;;;;;;;42.25;37.50;;;;;19.94;66.56;99621.72;5093355;28;8826;-62
2022/08/18 06:58:54;;;;;;;;;39.75;36.25;;;;;19.94;65.96;99625.25;5091961;28;9495;-64
2022/08/18 07:01:21;;;;;;;;;38.75;35.00;;;;;19.93;66.27;99615.47;5092141;28;8853;-62
2022/08/18 07:03:49;;;;;;;;;38.25;37.50;;;;;19.96;66.49;99617.78;5092481;28;8822;-63
2022/08/18 07:06:17;;;;;;;;;40.50;33.00;;;;;20.02;66.43;99608.09;5090417;28;9264;-63
2022/08/18 07:08:45;;;;;;;;;39.75;36.25;;;;;20.10;66.12;99608.84;5092393;28;8983;-63
2022/08/18 07:11:12;;;;;;;;;32.00;27.50;;;;;20.18;66.06;99605.19;5091500;28;8922;-63
2022/08/18 07:13:40;;;;;;;;;34.80;31.20;;;;;20.26;65.70;99616.72;5092587;28;8956;-62
2022/08/18 07:16:08;;;;;;;;;39.00;32.80;;;;;20.33;65.14;99608.69;5090414;28;9569;-63
2022/08/18 07:18:42;;;;;;;;;40.20;36.20;;;;;20.37;65.45;99608.09;5089853;28;8850;-63
2022/08/18 07:21:10;;;;;;;;;45.00;39.40;;;;;20.40;65.47;99602.28;5088633;28;8942;-62
2022/08/18 07:23:38;;;;;;;;;34.80;28.40;;;;;20.43;65.53;99604.63;5087516;28;8833;-63
2022/08/18 07:26:05;;;;;;;;;39.40;35.00;;;;;20.47;65.31;99603.22;5087736;28;8842;-62
2022/08/18 07:28:35;;;;;;;;;42.60;37.60;;;;;20.49;65.22;99595.72;5088978;28;8845;-62
2022/08/18 07:31:03;;;;;;;;;40.75;36.50;;;;;20.50;65.18;99596.56;5091137;28;8838;-63
2022/08/18 07:33:43;;;;;;;;;38.60;33.80;;;;;20.52;65.39;99589.94;5091292;28;8861;-63
2022/08/18 07:36:11;;;;;;;;;37.20;31.60;;;;;20.59;65.04;99598.97;5091567;28;8842;-64
2022/08/18 07:38:40;;;;;;;;;31.60;26.00;;;;;20.66;64.81;99590.91;5092390;28;8842;-63
2022/08/18 07:41:12;;;;;;;;;39.40;32.60;;;;;20.73;64.73;99588.06;5092583;28;8838;-62
2022/08/18 07:43:40;;;;;;;;;20.60;17.20;;;;;20.84;64.79;99584.81;5092444;28;8869;-64
2022/08/18 07:46:08;;;;;;;;;41.40;34.40;;;;;20.97;64.58;99592.25;5093632;28;8922;-63
2022/08/18 07:48:35;;;;;;;;;40.60;34.80;;;;;21.08;64.12;99592.53;5092051;28;9613;-63
2022/08/18 07:51:07;;;;;;;;;38.20;36.40;;;;;21.16;63.81;99599.66;5091321;28;8829;-63
2022/08/18 07:53:35;;;;;;;;;35.20;30.20;;;;;21.22;63.46;99607.00;5091993;28;8860;-63
2022/08/18 07:56:03;;;;;;;;;38.60;33.00;;;;;21.27;63.85;99607.25;5092687;28;9532;-62
2022/08/18 07:58:31;;;;;;;;;38.60;33.60;;;;;21.30;63.65;99613.13;5092689;28;8837;-63
2022/08/18 08:00:59;;;;;;;;;21.60;21.60;;;;;21.31;63.45;99613.94;5094003;28;8826;-62
2022/08/18 08:03:27;;;;;;;;;44.80;34.60;;;;;21.28;63.54;99612.50;5096944;28;8850;-63
2022/08/18 08:05:55;;;;;;;;;43.60;38.60;;;;;21.25;63.60;99612.03;5096102;28;8833;-64
2022/08/18 08:08:23;;;;;;;;;23.20;18.40;;;;;21.24;63.87;99608.50;5096147;28;9618;-63
2022/08/18 08:10:52;;;;;;;;;43.40;38.60;;;;;21.20;64.38;99599.06;5096858;28;8837;-63
2022/08/18 08:13:19;;;;;;;;;38.40;32.20;;;;;21.16;64.49;99599.66;5096379;28;8864;-63
2022/08/18 08:16:07;;;;;;;;;34.20;29.80;;;;;21.14;64.37;99602.59;5096468;28;9401;-63
2022/08/18 08:18:35;;;;;;;;;35.60;33.40;;;;;21.18;64.91;99613.88;5095731;28;8838;-63
2022/08/18 08:21:03;;;;;;;;;46.40;37.80;;;;;21.19;64.15;99610.13;5095048;28;8834;-62
2022/08/18 08:23:31;;;;;;;;;34.60;29.20;;;;;21.21;64.24;99624.28;5095425;28;8838;-63
2022/08/18 08:25:59;;;;;;;;;33.80;31.00;;;;;21.22;64.70;99620.56;5095124;28;8857;-63
2022/08/18 08:28:27;;;;;;;;;31.00;28.20;;;;;21.23;64.41;99627.63;5095420;28;8848;-63
2022/08/18 08:30:55;;;;;;;;;34.60;30.40;;;;;21.23;64.41;99627.63;5095576;28;8837;-63
2022/08/18 08:33:43;;;;;;;;;36.00;32.00;;;;;21.26;64.45;99627.25;5094061;28;8858;-63
2022/08/18 08:36:10;;;;;;;;;36.60;28.80;;;;;21.31;64.27;99630.19;5094235;28;8842;-63
2022/08/18 08:38:38;;;;;;;;;31.80;23.60;;;;;21.33;63.82;99636.28;5095145;28;9230;-62
2022/08/18 08:41:12;;;;;;;;;44.20;35.00;;;;;21.34;63.96;99630.63;5095371;28;8826;-62
2022/08/18 08:43:39;;;;;;;;;31.60;30.80;;;;;21.38;64.10;99631.06;5096553;28;8844;-62
2022/08/18 08:46:08;;;;;;;;;36.00;32.40;;;;;21.41;64.17;99638.84;5093625;28;8938;-62
2022/08/18 08:48:35;;;;;;;;;35.40;31.80;;;;;21.45;63.73;99627.41;5093419;28;8845;-62
2022/08/18 08:51:04;;;;;;;;;32.40;29.40;;;;;21.52;64.14;99627.41;5093565;28;8964;-63
2022/08/18 08:53:33;;;;;;;;;42.40;34.40;;;;;21.57;63.63;99622.25;5092276;28;9263;-63
2022/08/18 08:56:01;;;;;;;;;33.40;31.00;;;;;21.64;63.96;99636.69;5092735;28;8968;-63
2022/08/18 08:58:29;;;;;;;;;44.40;36.80;;;;;21.71;63.65;99640.31;5092573;28;8825;-62
2022/08/18 09:00:57;;;;;;;;;45.80;38.00;;;;;21.75;63.01;99645.13;5093663;28;8838;-63
2022/08/18 09:03:24;;;;;;;;;42.60;33.60;;;;;21.78;63.60;99649.31;5094773;28;9488;-62
2022/08/18 09:05:57;;;;;;;;;33.60;30.00;;;;;21.81;63.02;99647.03;5093267;28;8878;-62
2022/08/18 09:08:25;;;;;;;;;34.80;29.20;;;;;21.85;63.01;99642.06;5093762;28;9202;-62
2022/08/18 09:10:53;;;;;;;;;36.20;32.80;;;;;21.84;63.06;99643.06;5094386;28;8829;-62
2022/08/18 09:13:20;;;;;;;;;38.40;34.40;;;;;21.88;62.96;99641.63;5091551;28;8927;-63
2022/08/18 09:15:55;;;;;;;;;37.80;33.20;;;;;21.93;63.20;99647.31;5092609;28;8830;-63
2022/08/18 09:18:23;;;;;;;;;35.60;31.40;;;;;21.96;63.47;99641.47;5089735;28;8845;-63
2022/08/18 09:20:51;;;;;;;;;39.80;35.60;;;;;21.99;63.10;99646.47;5091373;28;8886;-63
2022/08/18 09:23:19;;;;;;;;;37.00;27.80;;;;;22.03;63.17;99640.44;5092148;28;8984;-63
2022/08/18 09:25:47;;;;;;;;;35.00;30.20;;;;;22.06;63.03;99636.50;5093119;28;9296;-63
2022/08/18 09:28:14;;;;;;;;;38.20;32.00;;;;;22.08;62.77;99645.28;5092358;28;8838;-62
2022/08/18 09:30:43;;;;;;;;;45.40;35.20;;;;;22.13;62.60;99637.34;5092766;28;9491;-62
2022/08/18 09:33:14;;;;;;;;;36.20;33.80;;;;;22.16;62.53;99642.41;5092989;28;9008;-63
2022/08/18 09:35:45;;;;;;;;;32.80;30.00;;;;;22.15;62.71;99633.41;5092935;28;8838;-62
2022/08/18 09:43:53;;;;;;;;;39.20;36.40;;;;;22.17;63.36;99647.59;5094018;28;8849;-63
2022/08/18 09:46:21;;;;;;;;;34.80;28.80;;;;;22.21;63.10;99650.75;5094409;28;8834;-63
2022/08/18 09:48:49;;;;;;;;;47.20;39.40;;;;;22.24;63.01;99650.34;5094287;28;8930;-64
2022/08/18 09:51:17;;;;;;;;;42.40;36.20;;;;;22.21;62.65;99651.59;5094168;28;8841;-63
2022/08/18 09:53:45;;;;;;;;;42.00;33.40;;;;;22.19;62.97;99653.69;5092829;28;8845;-64
2022/08/18 09:56:13;;;;;;;;;39.40;35.60;;;;;22.16;63.17;99658.66;5091240;28;8875;-63
2022/08/18 09:58:46;;;;;;;;;40.60;33.40;;;;;22.12;63.40;99663.66;5091574;28;8884;-63
2022/08/18 10:01:16;;;;;;;;;36.80;28.80;;;;;22.10;63.73;99664.91;5091331;28;8857;-63
2022/08/18 10:03:44;;;;;;;;;46.60;38.40;;;;;22.13;62.99;99664.47;5090892;28;9193;-63
2022/08/18 10:06:12;;;;;;;;;42.00;38.00;;;;;22.18;63.16;99667.44;5088051;28;8857;-63
2022/08/18 10:08:40;;;;;;;;;32.40;25.00;;;;;22.27;62.85;99661.63;5089000;28;8845;-63
2022/08/18 10:11:09;;;;;;;;;40.60;30.60;;;;;22.41;62.50;99648.94;5089365;28;8833;-62
2022/08/18 10:13:37;;;;;;;;;36.20;31.60;;;;;22.57;62.54;99656.75;5089485;28;8976;-63
2022/08/18 10:16:05;;;;;;;;;40.60;33.40;;;;;22.73;61.49;99650.91;5089897;28;8968;-62
2022/08/18 10:18:37;;;;;;;;;34.60;32.20;;;;;22.85;61.88;99655.53;5089760;28;8849;-63
2022/08/18 10:21:06;;;;;;;;;32.00;29.80;;;;;22.96;61.63;99645.94;5090466;28;9596;-62
2022/08/18 10:23:35;;;;;;;;;38.40;35.00;;;;;23.08;61.30;99655.13;5092443;28;8842;-62
2022/08/18 10:26:14;;;;;;;;;38.20;33.60;;;;;23.24;60.56;99655.59;5092308;28;8822;-63
2022/08/18 10:28:47;;;;;;;;;36.20;31.80;;;;;23.43;60.46;99643.03;5091971;28;8926;-63
2022/08/18 10:31:18;;;;;;;;;33.00;27.80;;;;;23.58;60.41;99646.34;5092565;28;8930;-62
2022/08/18 10:33:50;;;;;;;;;39.20;34.20;;;;;23.69;60.37;99637.53;5092562;28;8850;-62
2022/08/18 10:36:19;;;;;;;;;29.40;28.00;;;;;23.74;59.61;99635.03;5093152;28;8857;-62
2022/08/18 10:38:52;;;;;;;;;37.80;32.80;;;;;23.81;60.15;99627.69;5092539;28;9617;-62
2022/08/18 10:41:20;;;;;;;;;38.40;35.40;;;;;23.85;59.73;99635.19;5092903;28;9492;-62
2022/08/18 10:43:48;;;;;;;;;40.40;33.60;;;;;23.91;60.08;99636.25;5093783;28;8830;-63
2022/08/18 10:46:24;;;;;;;;;37.00;33.20;;;;;24.01;59.41;99640.19;5092934;28;8834;-62
2022/08/18 10:48:57;;;;;;;;;36.60;30.60;;;;;24.10;59.46;99643.47;5091866;28;8840;-63
2022/08/18 10:51:25;;;;;;;;;32.00;30.20;;;;;24.18;59.32;99641.38;5092664;28;8830;-63
2022/08/18 10:53:54;;;;;;;;;44.40;35.60;;;;;24.27;58.81;99639.25;5092272;28;8846;-62
2022/08/18 10:56:22;;;;;;;;;48.20;36.80;;;;;24.28;59.08;99651.81;5091702;28;8885;-63
2022/08/18 10:58:53;;;;;;;;;41.80;34.60;;;;;24.20;59.61;99649.31;5094297;28;8950;-64
2022/08/18 11:01:21;;;;;;;;;41.80;34.80;;;;;24.27;58.94;99639.25;5092639;28;8957;-63
2022/08/18 11:03:49;;;;;;;;;36.40;30.80;;;;;24.36;59.04;99640.66;5093218;28;8848;-63
2022/08/18 11:06:23;;;;;;;;;31.60;29.20;;;;;24.43;59.31;99625.94;5093337;28;8850;-63
2022/08/18 11:08:51;;;;;;;;;42.80;33.40;;;;;24.53;59.29;99631.78;5093110;28;8914;-63
2022/08/18 11:11:23;;;;;;;;;35.60;30.60;;;;;24.56;58.61;99635.97;5093378;28;8844;-63
2022/08/18 11:14:04;;;;;;;;;29.60;25.60;;;;;24.58;58.89;99631.13;5093234;28;8825;-63
2022/08/18 11:16:32;;;;;;;;;38.40;33.80;;;;;24.66;58.72;99617.25;5091878;28;8853;-63
2022/08/18 11:19:00;;;;;;;;;49.20;39.40;;;;;24.80;57.97;99614.22;5091746;28;8966;-63
2022/08/18 11:21:30;;;;;;;;;36.60;34.20;;;;;24.99;57.75;99604.22;5091032;28;8838;-63
2022/08/18 11:23:58;;;;;;;;;38.20;34.40;;;;;25.18;57.87;99598.59;5090331;28;8860;-63
2022/08/18 11:26:26;;;;;;;;;32.00;28.00;;;;;25.42;57.68;99599.66;5091340;28;8824;-64
2022/08/18 11:28:54;;;;;;;;;33.00;24.40;;;;;25.67;56.59;99604.81;5091566;28;8858;-63
2022/08/18 11:31:21;;;;;;;;;37.20;32.20;;;;;25.81;56.50;99600.06;5091812;28;8830;-64
2022/08/18 11:33:50;;;;;;;;;45.80;37.80;;;;;25.91;56.40;99603.97;5092857;28;8911;-63
2022/08/18 11:36:18;;;;;;;;;36.80;32.40;;;;;25.98;55.96;99602.00;5095051;28;8911;-63
2022/08/18 11:38:46;;;;;;;;;42.40;36.20;;;;;26.01;55.85;99608.88;5097294;28;8834;-63
2022/08/18 11:41:17;;;;;;;;;41.40;32.60;;;;;25.95;56.25;99612.53;5097862;28;8838;-63
2022/08/18 11:43:45;;;;;;;;;41.00;33.60;;;;;25.92;56.67;99608.34;5096848;28;8830;-63
2022/08/18 11:46:14;;;;;;;;;26.60;25.00;;;;;25.93;55.96;99598.25;5096395;28;8860;-63
2022/08/18 11:48:44;;;;;;;;;37.80;35.00;;;;;25.94;56.27;99589.84;5095674;28;8846;-63